Ellis Prairie, Missouri
Current Conditions -  °F | °C
As of 11:58 AM on Thursday 29 Jan 2015 (Local Time) from KTBN Reporting Station
Overcast Overcast  
Wind Chill: 31°   Ceiling: 2200
Heat Index: 39°   Visibility: 10mi
Dew Point: 31°   Wind: 13mph
Humidity: 74%   Direction: 300°WNW
Pressure: 30.23"   Gusts: 28mph
Location:  37.3991°N, 92.0382°W
Report Text: KTBN 291758Z AUTO 30011G24KT 10SM OVC022 04/00 A3023 RMK AO2 SLP243 60000 T00391003 10077 20037 52037
Loading
Personal Weather Stations






























Interactive Weather Map New forecast layout! Learn more

10-Day Weather Forecast

Advertisements
Track Severe Weather on mobile